Time,TemperatureF,DewpointF,PressureIn,WindDirection,WindDirectionDegrees,WindSpeedMPH,WindSpeedGustMPH,Humidity,HourlyPrecipIn,Conditions,Clouds,dailyrainin,SolarRadiationWatts/m^2,SoftwareType,DateUTC
2013-07-19 00:01:00,78.4,69.8,29.67,SE,140,1.1,1.1,75,0.00,BKN,,0.00,0.0,WeatherDisplay:10.37,2013-07-19 05:01:00,
2013-07-19 00:06:00,78.3,69.7,29.67,WSW,256,3.5,3.5,75,0.00,BKN,,0.00,0.0,WeatherDisplay:10.37,2013-07-19 05:06:00,
2013-07-19 00:11:00,78.2,70.0,29.67,ESE,123,0.0,0.2,76,0.00,BKN,,0.00,0.0,WeatherDisplay:10.37,2013-07-19 05:11:00,
2013-07-19 00:16:00,78.1,69.9,29.67,South,186,1.1,1.1,76,0.00,BKN,,0.00,0.0,WeatherDisplay:10.37,2013-07-19 05:16:00,
2013-07-19 00:21:00,77.9,69.7,29.67,South,185,1.1,1.1,76,0.00,BKN,,0.00,0.0,WeatherDisplay:10.37,2013-07-19 05:21:00,
2013-07-19 00:26:00,77.9,69.7,29.67,WSW,242,5.8,5.8,76,0.00,BKN,,0.00,0.0,WeatherDisplay:10.37,2013-07-19 05:26:00,
2013-07-19 00:31:00,77.8,70.0,29.67,West,271,1.1,1.1,77,0.00,BKN,,0.00,0.0,WeatherDisplay:10.37,2013-07-19 05:31:00,
2013-07-19 00:36:00,77.7,69.9,29.66,SSE,161,2.3,2.3,77,0.00,BKN,,0.00,0.0,WeatherDisplay:10.37,2013-07-19 05:36:00,
2013-07-19 00:41:00,77.6,69.8,29.67,SE,146,2.3,2.3,77,0.00,BKN,,0.00,0.0,WeatherDisplay:10.37,2013-07-19 05:41:00,
2013-07-19 00:46:00,77.5,70.1,29.66,SE,146,1.1,0.0,78,0.00,BKN,,0.00,0.0,WeatherDisplay:10.37,2013-07-19 05:46:00,
2013-07-19 00:51:00,77.3,69.9,29.66,SE,135,3.5,3.5,78,0.00,BKN,,0.00,0.0,WeatherDisplay:10.37,2013-07-19 05:51:00,
2013-07-19 00:56:00,77.5,70.1,29.66,NW,311,3.5,3.5,78,0.00,BKN,,0.00,0.0,WeatherDisplay:10.37,2013-07-19 05:56:00,
2013-07-19 01:01:00,77.6,69.8,29.65,SW,215,2.3,2.3,77,0.00,OVC,,0.00,0.0,WeatherDisplay:10.37,2013-07-19 06:01:00,
2013-07-19 01:06:00,77.7,69.9,29.65,SSE,152,2.3,2.3,77,0.00,OVC,,0.00,0.0,WeatherDisplay:10.37,2013-07-19 06:06:00,
2013-07-19 01:12:00,77.8,70.0,29.64,West,259,3.5,3.5,77,0.00,OVC,,0.00,0.0,WeatherDisplay:10.37,2013-07-19 06:12:00,
2013-07-19 01:17:00,77.9,69.7,29.64,SW,227,8.1,8.1,76,0.00,OVC,,0.00,0.0,WeatherDisplay:10.37,2013-07-19 06:17:00,
2013-07-19 01:22:00,78.3,70.1,29.63,South,179,3.5,3.5,76,0.00,OVC,,0.00,0.0,WeatherDisplay:10.37,2013-07-19 06:22:00,
2013-07-19 01:27:00,78.7,69.7,29.63,NNE,32,10.0,10.0,74,0.00,OVC,,0.00,0.0,WeatherDisplay:10.37,2013-07-19 06:27:00,
2013-07-19 01:32:00,79.1,69.7,29.62,NE,36,4.6,4.6,73,0.00,SCT,,0.00,0.0,WeatherDisplay:10.37,2013-07-19 06:32:00,
2013-07-19 01:37:00,79.4,69.6,29.62,East,84,5.8,5.8,72,0.00,SCT,,0.00,0.0,WeatherDisplay:10.37,2013-07-19 06:37:00,
2013-07-19 01:42:00,79.5,70.5,29.62,WSW,242,10.0,10.0,74,0.00,SCT,,0.00,0.0,WeatherDisplay:10.37,2013-07-19 06:42:00,
2013-07-19 01:47:00,79.6,69.8,29.62,SE,139,8.1,8.1,72,0.00,SCT,,0.00,0.0,WeatherDisplay:10.37,2013-07-19 06:47:00,
2013-07-19 01:52:00,79.7,70.3,29.62,SSW,212,4.6,4.6,73,0.00,SCT,,0.00,0.0,WeatherDisplay:10.37,2013-07-19 06:52:00,
2013-07-19 01:57:00,79.8,69.6,29.62,SSW,195,10.4,10.4,71,0.00,SCT,,0.00,0.0,WeatherDisplay:10.37,2013-07-19 06:57:00,
2013-07-19 02:02:00,80.0,70.2,29.61,West,275,4.6,4.6,72,0.00,SCT,,0.00,0.0,WeatherDisplay:10.37,2013-07-19 07:02:00,
2013-07-19 02:07:00,80.0,69.7,29.61,WSW,250,4.6,4.6,71,0.00,SCT,,0.00,0.0,WeatherDisplay:10.37,2013-07-19 07:07:00,
2013-07-19 02:12:00,80.3,70.0,29.62,ESE,102,1.1,1.1,71,0.00,SCT,,0.00,0.0,WeatherDisplay:10.37,2013-07-19 07:12:00,
2013-07-19 02:17:00,80.3,69.6,29.61,East,101,4.6,4.6,70,0.00,-RA,,0.00,0.0,WeatherDisplay:10.37,2013-07-19 07:17:00,
2013-07-19 02:22:00,80.6,69.9,29.61,West,272,11.5,11.5,70,0.00,-RA,,0.00,0.0,WeatherDisplay:10.37,2013-07-19 07:22:00,
2013-07-19 02:27:00,80.5,70.2,29.62,West,279,3.5,3.5,71,0.00,-RA,,0.00,0.0,WeatherDisplay:10.37,2013-07-19 07:27:00,
2013-07-19 02:32:00,79.9,71.3,29.63,West,281,15.0,15.0,75,0.00,-RA,,0.00,0.0,WeatherDisplay:10.37,2013-07-19 07:32:00,
2013-07-19 02:37:00,78.2,71.2,29.61,SW,214,9.2,9.2,79,0.00,-RA,,0.00,0.0,WeatherDisplay:10.37,2013-07-19 07:37:00,
2013-07-19 02:42:00,76.3,71.1,29.61,SE,124,2.3,2.3,84,0.01,-RA,,0.01,0.0,WeatherDisplay:10.37,2013-07-19 07:42:00,
2013-07-19 02:47:00,75.3,70.8,29.62,South,176,2.3,2.3,86,0.01,-RA,,0.01,0.0,WeatherDisplay:10.37,2013-07-19 07:47:00,
2013-07-19 02:52:00,74.6,70.5,29.62,West,263,4.6,4.6,87,0.01,-RA,,0.01,0.0,WeatherDisplay:10.37,2013-07-19 07:52:00,
2013-07-19 02:57:00,74.1,70.6,29.62,SW,230,0.0,0.0,89,0.01,-RA,,0.01,0.0,WeatherDisplay:10.37,2013-07-19 07:57:00,
2013-07-19 03:02:00,73.8,70.7,29.61,SW,229,3.5,3.5,90,0.01,-RA,,0.01,0.0,WeatherDisplay:10.37,2013-07-19 08:02:00,
2013-07-19 04:07:00,72.6,70.8,29.61,WSW,253,0.0,0.0,94,0.02,-RA,,0.03,0.0,WeatherDisplay:10.37,2013-07-19 09:07:00,
2013-07-19 04:12:00,72.5,70.7,29.61,WSW,253,0.0,0.0,94,0.01,-RA,,0.03,0.0,WeatherDisplay:10.37,2013-07-19 09:12:00,
2013-07-19 04:17:00,72.4,70.9,29.61,WSW,252,0.0,0.0,95,0.01,SCT,,0.03,0.0,WeatherDisplay:10.37,2013-07-19 09:17:00,
2013-07-19 04:22:00,72.3,70.8,29.61,WSW,252,0.0,0.0,95,0.01,SCT,,0.03,0.0,WeatherDisplay:10.37,2013-07-19 09:22:00,
2013-07-19 04:27:00,72.2,70.7,29.61,SE,144,1.1,1.1,95,0.01,SCT,,0.03,0.0,WeatherDisplay:10.37,2013-07-19 09:27:00,
2013-07-19 04:32:00,72.1,70.3,29.61,ENE,68,1.1,0.0,94,0.01,SCT,,0.03,0.0,WeatherDisplay:10.37,2013-07-19 09:32:00,
2013-07-19 04:37:00,72.0,70.5,29.61,SW,233,3.5,3.5,95,0.01,SCT,,0.03,0.0,WeatherDisplay:10.37,2013-07-19 09:37:00,
2013-07-19 04:42:00,71.9,70.4,29.61,SW,218,1.1,0.0,95,0.01,SCT,,0.03,0.0,WeatherDisplay:10.37,2013-07-19 09:42:00,
2013-07-19 04:47:00,71.9,70.4,29.61,SW,218,0.0,0.1,95,0.01,SCT,,0.03,0.0,WeatherDisplay:10.37,2013-07-19 09:47:00,
2013-07-19 04:52:00,71.9,70.4,29.61,SW,218,0.0,0.1,95,0.01,BKN,,0.03,0.0,WeatherDisplay:10.37,2013-07-19 09:52:00,
2013-07-19 04:57:00,71.9,70.4,29.61,SW,218,0.0,0.1,95,0.01,BKN,,0.03,0.0,WeatherDisplay:10.37,2013-07-19 09:57:00,
2013-07-19 05:02:00,71.9,70.4,29.61,SW,218,0.0,0.1,95,0.01,BKN,,0.03,0.0,WeatherDisplay:10.37,2013-07-19 10:02:00,
2013-07-19 05:07:00,71.7,70.2,29.62,SE,125,3.5,3.5,95,0.00,BKN,,0.04,0.0,WeatherDisplay:10.37,2013-07-19 10:07:00,
2013-07-19 05:12:00,71.7,70.2,29.62,SSE,155,4.6,0.0,95,0.00,BKN,,0.04,0.0,WeatherDisplay:10.37,2013-07-19 10:12:00,
2013-07-19 05:17:00,71.9,70.4,29.61,SW,218,0.0,0.1,95,0.00,BKN,,0.03,0.0,WeatherDisplay:10.37,2013-07-19 10:17:00,
2013-07-19 05:22:00,71.9,70.4,29.61,SW,218,0.0,0.1,95,0.00,SCT,,0.03,0.0,WeatherDisplay:10.37,2013-07-19 10:22:00,
2013-07-19 05:27:00,71.9,70.4,29.61,SW,218,0.0,0.1,95,0.00,SCT,,0.03,0.0,WeatherDisplay:10.37,2013-07-19 10:27:00,
2013-07-19 05:32:00,71.5,70.0,29.62,SW,220,0.0,0.0,95,0.00,SCT,,0.04,0.0,WeatherDisplay:10.37,2013-07-19 10:32:00,
2013-07-19 05:37:00,71.9,70.4,29.61,SW,218,0.0,0.1,95,0.00,SCT,,0.03,0.0,WeatherDisplay:10.37,2013-07-19 10:37:00,
2013-07-19 05:42:00,71.9,70.4,29.61,SW,218,0.0,0.1,95,0.00,SCT,,0.03,0.0,WeatherDisplay:10.37,2013-07-19 10:42:00,
2013-07-19 05:47:00,71.9,70.4,29.61,SW,218,0.0,0.1,95,0.00,SCT,,0.03,0.0,WeatherDisplay:10.37,2013-07-19 10:47:00,
2013-07-19 05:52:00,71.0,69.5,29.62,SW,220,0.0,0.0,95,0.00,SCT,,0.04,5.0,WeatherDisplay:10.37,2013-07-19 10:52:00,
2013-07-19 05:57:00,70.9,69.4,29.62,SW,220,0.0,0.0,95,0.00,SCT,,0.04,7.0,WeatherDisplay:10.37,2013-07-19 10:57:00,
2013-07-19 06:02:00,70.8,69.3,29.62,SW,220,0.0,0.0,95,0.00,SCT,,0.03,7.0,WeatherDisplay:10.37,2013-07-19 11:02:00,
2013-07-19 06:07:00,70.8,69.3,29.62,SW,220,0.0,0.0,95,0.00,SCT,,0.03,9.0,WeatherDisplay:10.37,2013-07-19 11:07:00,
2013-07-19 06:12:00,70.8,69.3,29.62,SW,220,0.0,0.0,95,0.00,SCT,,0.03,9.0,WeatherDisplay:10.37,2013-07-19 11:12:00,
2013-07-19 06:17:00,70.8,69.3,29.62,SW,220,0.0,0.0,95,0.00,CLR,,0.03,9.0,WeatherDisplay:10.37,2013-07-19 11:17:00,
2013-07-19 06:22:00,70.6,69.4,29.62,SW,220,0.0,0.0,96,0.00,CLR,,0.04,12.0,WeatherDisplay:10.37,2013-07-19 11:22:00,
2013-07-19 06:27:00,70.8,69.3,29.62,SW,220,0.0,0.0,95,0.00,CLR,,0.03,9.0,WeatherDisplay:10.37,2013-07-19 11:27:00,
2013-07-19 06:32:00,70.7,69.5,29.63,NW,311,1.1,0.0,96,0.00,CLR,,0.04,14.0,WeatherDisplay:10.37,2013-07-19 11:32:00,
2013-07-19 06:37:00,70.8,69.6,29.63,SSW,200,2.3,2.3,96,0.00,CLR,,0.04,14.0,WeatherDisplay:10.37,2013-07-19 11:37:00,
2013-07-19 06:42:00,70.9,70.0,29.63,SW,225,1.1,1.1,97,0.00,CLR,,0.04,16.0,WeatherDisplay:10.37,2013-07-19 11:42:00,
2013-07-19 06:47:00,71.0,70.1,29.63,SW,225,1.1,0.0,97,0.00,CLR,,0.04,16.0,WeatherDisplay:10.37,2013-07-19 11:47:00,
2013-07-19 06:52:00,71.0,70.1,29.63,SW,225,0.0,0.0,97,0.00,CLR,,0.04,18.0,WeatherDisplay:10.37,2013-07-19 11:52:00,
2013-07-19 06:57:00,71.1,70.2,29.63,SW,228,2.3,2.3,97,0.00,CLR,,0.03,18.0,WeatherDisplay:10.37,2013-07-19 11:57:00,
2013-07-19 07:02:00,71.4,70.5,29.63,WNW,303,3.5,3.5,97,0.00,CLR,,0.03,18.0,WeatherDisplay:10.37,2013-07-19 12:02:00,
2013-07-19 07:07:00,71.0,70.1,29.63,SW,225,0.0,0.0,97,0.00,CLR,,0.04,18.0,WeatherDisplay:10.37,2013-07-19 12:07:00,
2013-07-19 07:12:00,71.7,70.8,29.63,SSE,154,0.0,0.0,97,0.00,CLR,,0.03,19.0,WeatherDisplay:10.37,2013-07-19 12:12:00,
2013-07-19 07:17:00,71.7,70.8,29.64,SSE,154,0.0,0.0,97,0.00,CLR,,0.04,21.0,WeatherDisplay:10.37,2013-07-19 12:17:00,
2013-07-19 07:22:00,71.8,70.9,29.63,WSW,246,2.3,0.0,97,0.00,CLR,,0.04,21.0,WeatherDisplay:10.37,2013-07-19 12:22:00,
2013-07-19 07:27:00,71.7,70.8,29.63,SSE,154,0.0,0.0,97,0.00,CLR,,0.03,19.0,WeatherDisplay:10.37,2013-07-19 12:27:00,
2013-07-19 07:32:00,72.2,71.3,29.64,South,169,3.5,3.5,97,0.00,CLR,,0.04,25.0,WeatherDisplay:10.37,2013-07-19 12:32:00,
2013-07-19 07:37:00,72.5,71.9,29.64,SSE,168,0.0,0.0,98,0.00,CLR,,0.04,44.0,WeatherDisplay:10.37,2013-07-19 12:37:00,
2013-07-19 07:42:00,72.8,71.9,29.64,SE,128,3.5,3.5,97,0.00,CLR,,0.04,70.0,WeatherDisplay:10.37,2013-07-19 12:42:00,
2013-07-19 07:47:00,71.7,70.8,29.63,SSE,154,0.0,0.0,97,0.00,CLR,,0.03,19.0,WeatherDisplay:10.37,2013-07-19 12:47:00,
2013-07-19 07:52:00,73.3,72.4,29.64,SE,132,0.0,0.0,97,0.00,CLR,,0.04,39.0,WeatherDisplay:10.37,2013-07-19 12:52:00,
2013-07-19 07:57:00,73.6,72.4,29.64,WNW,283,3.5,3.5,96,0.00,CLR,,0.03,54.0,WeatherDisplay:10.37,2013-07-19 12:57:00,
2013-07-19 08:02:00,73.3,72.4,29.64,SE,132,0.0,0.0,97,0.00,CLR,,0.04,39.0,WeatherDisplay:10.37,2013-07-19 13:02:00,
2013-07-19 08:07:00,74.2,72.4,29.64,South,191,5.8,5.8,94,0.00,CLR,,0.03,63.0,WeatherDisplay:10.37,2013-07-19 13:07:00,
2013-07-19 08:12:00,74.7,72.5,29.63,SE,138,5.8,5.8,93,0.00,CLR,,0.03,35.0,WeatherDisplay:10.37,2013-07-19 13:12:00,
2013-07-19 08:17:00,75.1,72.6,29.64,WNW,296,4.6,4.6,92,0.00,CLR,,0.03,42.0,WeatherDisplay:10.37,2013-07-19 13:17:00,
2013-07-19 08:22:00,73.3,72.4,29.64,SE,132,0.0,0.0,97,0.00,CLR,,0.04,39.0,WeatherDisplay:10.37,2013-07-19 13:22:00,
2013-07-19 08:26:00,73.3,72.4,29.64,SE,132,0.0,0.0,97,0.00,CLR,,0.04,39.0,WeatherDisplay:10.37,2013-07-19 13:26:00,
2013-07-19 08:31:00,73.3,72.4,29.64,SE,132,0.0,0.0,97,0.00,CLR,,0.04,39.0,WeatherDisplay:10.37,2013-07-19 13:31:00,
2013-07-19 08:36:00,75.8,71.7,29.64,NNE,12,5.8,5.8,87,0.00,BKN,,0.03,95.0,WeatherDisplay:10.37,2013-07-19 13:36:00,
2013-07-19 08:41:00,75.8,71.7,29.64,NNE,12,0.0,2.4,87,0.00,BKN,,0.03,95.0,WeatherDisplay:10.37,2013-07-19 13:41:00,
2013-07-19 08:46:00,75.8,71.7,29.65,West,276,4.6,4.6,87,0.00,BKN,,0.04,114.0,WeatherDisplay:10.37,2013-07-19 13:46:00,
2013-07-19 08:51:00,75.8,71.7,29.64,NNE,12,0.0,2.4,87,0.00,BKN,,0.03,95.0,WeatherDisplay:10.37,2013-07-19 13:51:00,
2013-07-19 08:56:00,75.8,70.6,29.65,SSW,198,2.3,2.3,84,0.00,BKN,,0.04,158.0,WeatherDisplay:10.37,2013-07-19 13:56:00,
2013-07-19 09:01:00,75.8,70.6,29.65,SSW,198,1.1,1.1,84,0.00,BKN,,0.04,158.0,WeatherDisplay:10.37,2013-07-19 14:01:00,
2013-07-19 09:06:00,76.2,71.0,29.66,South,171,9.2,9.2,84,0.00,BKN,,0.03,81.0,WeatherDisplay:10.37,2013-07-19 14:06:00,
2013-07-19 09:11:00,75.8,70.6,29.65,SSW,198,1.1,1.1,84,0.00,BKN,,0.04,158.0,WeatherDisplay:10.37,2013-07-19 14:11:00,
2013-07-19 09:16:00,75.8,70.6,29.65,SSW,198,1.1,1.1,84,0.00,BKN,,0.04,158.0,WeatherDisplay:10.37,2013-07-19 14:16:00,
2013-07-19 09:21:00,75.8,70.6,29.65,SSW,198,1.1,1.1,84,0.00,BKN,,0.04,158.0,WeatherDisplay:10.37,2013-07-19 14:21:00,
2013-07-19 09:26:00,75.8,70.6,29.65,SSW,198,1.1,1.1,84,0.00,BKN,,0.04,158.0,WeatherDisplay:10.37,2013-07-19 14:26:00,
2013-07-19 09:31:00,76.6,71.0,29.66,North,351,3.5,3.5,83,0.00,BKN,,0.03,105.0,WeatherDisplay:10.37,2013-07-19 14:31:00,
2013-07-19 09:36:00,76.9,71.0,29.66,NNE,17,4.0,4.0,82,0.00,BKN,,0.03,142.0,WeatherDisplay:10.37,2013-07-19 14:36:00,
2013-07-19 09:41:00,77.2,70.5,29.66,ENE,73,3.5,3.5,80,0.00,BKN,,0.03,148.0,WeatherDisplay:10.37,2013-07-19 14:41:00,
2013-07-19 09:46:00,77.4,71.8,29.67,SSW,209,8.0,8.0,83,0.00,BKN,,0.03,74.0,WeatherDisplay:10.37,2013-07-19 14:46:00,
2013-07-19 09:51:00,77.4,70.0,29.66,NW,321,6.0,6.0,78,0.00,BKN,,0.03,56.0,WeatherDisplay:10.37,2013-07-19 14:51:00,
2013-07-19 09:56:00,77.5,70.1,29.66,North,355,11.5,11.5,78,0.00,BKN,,0.03,113.0,WeatherDisplay:10.37,2013-07-19 14:56:00,
2013-07-19 10:01:00,77.7,69.5,29.66,East,95,4.0,4.0,76,0.00,BKN,,0.03,169.0,WeatherDisplay:10.37,2013-07-19 15:01:00,
2013-07-19 10:06:00,75.8,70.6,29.65,SSW,198,1.1,1.1,84,0.00,BKN,,0.04,158.0,WeatherDisplay:10.37,2013-07-19 15:06:00,
2013-07-19 10:11:00,75.8,70.6,29.65,SSW,198,1.1,1.1,84,0.00,BKN,,0.04,158.0,WeatherDisplay:10.37,2013-07-19 15:11:00,
2013-07-19 10:16:00,75.8,70.6,29.65,SSW,198,1.1,1.1,84,0.00,BKN,,0.04,158.0,WeatherDisplay:10.37,2013-07-19 15:16:00,
2013-07-19 10:21:00,75.8,70.6,29.65,SSW,198,1.1,1.1,84,0.00,BKN,,0.04,158.0,WeatherDisplay:10.37,2013-07-19 15:21:00,
2013-07-19 10:26:00,75.8,70.6,29.65,SSW,198,1.1,1.1,84,0.00,BKN,,0.04,158.0,WeatherDisplay:10.37,2013-07-19 15:26:00,
2013-07-19 10:31:00,75.8,70.6,29.65,SSW,198,1.1,1.1,84,0.00,BKN,,0.04,158.0,WeatherDisplay:10.37,2013-07-19 15:31:00,
2013-07-19 10:36:00,73.6,68.8,29.68,West,265,0.0,0.8,85,0.00,BKN,,0.03,107.0,WeatherDisplay:10.37,2013-07-19 15:36:00,
2013-07-19 10:41:00,73.4,70.3,29.68,NW,310,1.1,1.1,90,0.00,BKN,,0.04,132.0,WeatherDisplay:10.37,2013-07-19 15:41:00,
2013-07-19 10:46:00,73.5,69.7,29.68,WSW,258,2.3,2.3,88,0.00,BKN,,0.04,251.0,WeatherDisplay:10.37,2013-07-19 15:46:00,
2013-07-19 10:51:00,73.7,70.3,29.68,SW,226,0.0,1.1,89,0.00,BKN,,0.04,436.0,WeatherDisplay:10.37,2013-07-19 15:51:00,
2013-07-19 10:56:00,73.8,70.4,29.68,SW,226,0.0,0.0,89,0.00,BKN,,0.03,436.0,WeatherDisplay:10.37,2013-07-19 15:56:00,
2013-07-19 11:01:00,73.8,70.4,29.68,SW,226,0.0,0.0,89,0.00,BKN,,0.03,436.0,WeatherDisplay:10.37,2013-07-19 16:01:00,
2013-07-19 11:06:00,76.3,70.4,29.68,North,360,1.1,1.1,82,0.00,CLR,,0.04,784.0,WeatherDisplay:10.37,2013-07-19 16:06:00,
2013-07-19 11:11:00,77.1,69.3,29.69,NE,51,4.0,4.0,77,0.00,CLR,,0.04,837.0,WeatherDisplay:10.37,2013-07-19 16:11:00,
2013-07-19 11:16:00,77.4,68.9,29.69,NNE,28,1.1,1.1,75,0.00,CLR,,0.04,828.0,WeatherDisplay:10.37,2013-07-19 16:16:00,
2013-07-19 11:21:00,77.4,68.9,29.69,NNE,28,1.1,1.1,75,0.00,CLR,,0.04,828.0,WeatherDisplay:10.37,2013-07-19 16:21:00,
2013-07-19 11:26:00,77.4,68.9,29.69,NNE,28,1.1,1.1,75,0.00,CLR,,0.04,828.0,WeatherDisplay:10.37,2013-07-19 16:26:00,
2013-07-19 11:31:00,77.4,68.9,29.69,NNE,28,1.1,1.1,75,0.00,CLR,,0.04,828.0,WeatherDisplay:10.37,2013-07-19 16:31:00,
2013-07-19 11:36:00,79.1,68.5,29.70,NE,49,3.5,3.5,70,0.00,CLR,,0.03,870.0,WeatherDisplay:10.37,2013-07-19 16:36:00,
2013-07-19 11:41:00,77.4,68.9,29.69,NNE,28,1.1,1.1,75,0.00,CLR,,0.04,828.0,WeatherDisplay:10.37,2013-07-19 16:41:00,
2013-07-19 11:46:00,77.4,68.9,29.69,NNE,28,1.1,1.1,75,0.00,CLR,,0.04,828.0,WeatherDisplay:10.37,2013-07-19 16:46:00,
2013-07-19 11:51:00,77.4,68.9,29.69,NNE,28,1.1,1.1,75,0.00,CLR,,0.04,828.0,WeatherDisplay:10.37,2013-07-19 16:51:00,
2013-07-19 11:56:00,77.4,68.9,29.69,NNE,28,1.1,1.1,75,0.00,CLR,,0.04,828.0,WeatherDisplay:10.37,2013-07-19 16:56:00,
2013-07-19 12:01:00,77.4,68.9,29.69,NNE,28,1.1,1.1,75,0.00,CLR,,0.04,828.0,WeatherDisplay:10.37,2013-07-19 17:01:00,
2013-07-19 12:06:00,77.4,68.9,29.69,NNE,28,1.1,1.1,75,0.00,CLR,,0.04,828.0,WeatherDisplay:10.37,2013-07-19 17:06:00,
2013-07-19 12:11:00,79.9,65.7,29.71,WSW,257,5.8,5.8,62,0.00,CLR,,0.03,918.0,WeatherDisplay:10.37,2013-07-19 17:11:00,
2013-07-19 12:16:00,79.9,66.2,29.71,North,360,6.0,6.0,63,0.00,CLR,,0.03,991.0,WeatherDisplay:10.37,2013-07-19 17:16:00,
2013-07-19 12:21:00,79.7,65.1,29.71,NNE,16,4.6,4.6,61,0.00,FEW,,0.03,916.0,WeatherDisplay:10.37,2013-07-19 17:21:00,
2013-07-19 12:26:00,79.6,64.5,29.71,NNE,18,3.5,3.5,60,0.00,FEW,,0.03,912.0,WeatherDisplay:10.37,2013-07-19 17:26:00,
2013-07-19 12:31:00,79.9,65.2,29.71,NNE,28,4.0,4.0,61,0.00,FEW,,0.03,911.0,WeatherDisplay:10.37,2013-07-19 17:31:00,
2013-07-19 12:36:00,80.1,65.0,29.72,NW,313,4.0,4.0,60,0.00,FEW,,0.03,914.0,WeatherDisplay:10.37,2013-07-19 17:36:00,
2013-07-19 12:41:00,77.4,68.9,29.69,NNE,28,1.1,1.1,75,0.00,FEW,,0.04,828.0,WeatherDisplay:10.37,2013-07-19 17:41:00,
2013-07-19 12:46:00,77.4,68.9,29.69,NNE,28,1.1,1.1,75,0.00,FEW,,0.04,828.0,WeatherDisplay:10.37,2013-07-19 17:46:00,
2013-07-19 12:51:00,77.4,68.9,29.69,NNE,28,1.1,1.1,75,0.00,FEW,,0.04,828.0,WeatherDisplay:10.37,2013-07-19 17:51:00,
2013-07-19 12:56:00,77.4,68.9,29.69,NNE,28,1.1,1.1,75,0.00,FEW,,0.04,828.0,WeatherDisplay:10.37,2013-07-19 17:56:00,
2013-07-19 13:01:00,80.9,66.2,29.72,SW,224,5.0,5.0,61,0.00,FEW,,0.03,940.0,WeatherDisplay:10.37,2013-07-19 18:01:00,
2013-07-19 13:06:00,80.9,64.7,29.73,SE,142,5.8,5.8,58,0.00,FEW,,0.03,949.0,WeatherDisplay:10.37,2013-07-19 18:06:00,
2013-07-19 13:11:00,80.9,64.2,29.72,South,190,2.3,4.2,57,0.00,FEW,,0.03,949.0,WeatherDisplay:10.37,2013-07-19 18:11:00,
2013-07-19 13:16:00,80.9,64.2,29.72,South,190,2.3,4.2,57,0.00,FEW,,0.03,949.0,WeatherDisplay:10.37,2013-07-19 18:16:00,
2013-07-19 13:21:00,81.0,64.3,29.73,NE,53,5.8,5.8,57,0.00,FEW,,0.04,965.0,WeatherDisplay:10.37,2013-07-19 18:21:00,
2013-07-19 13:26:00,80.9,64.2,29.73,North,355,5.8,5.8,57,0.00,FEW,,0.04,956.0,WeatherDisplay:10.37,2013-07-19 18:26:00,
2013-07-19 13:31:00,81.1,64.4,29.73,SSW,213,3.5,3.5,57,0.00,FEW,,0.04,956.0,WeatherDisplay:10.37,2013-07-19 18:31:00,
2013-07-19 13:36:00,80.9,64.2,29.72,South,190,2.3,4.2,57,0.00,FEW,,0.03,949.0,WeatherDisplay:10.37,2013-07-19 18:36:00,
2013-07-19 13:41:00,81.3,64.1,29.73,WNW,285,3.5,3.5,56,0.00,FEW,,0.04,949.0,WeatherDisplay:10.37,2013-07-19 18:41:00,
2013-07-19 13:47:00,80.9,64.2,29.72,South,190,2.3,4.2,57,0.00,FEW,,0.03,949.0,WeatherDisplay:10.37,2013-07-19 18:47:00,
2013-07-19 13:52:00,81.2,65.0,29.74,North,355,2.3,2.3,58,0.00,FEW,,0.03,935.0,WeatherDisplay:10.37,2013-07-19 18:52:00,
2013-07-19 13:57:00,81.1,63.4,29.73,ESE,121,0.0,1.7,55,0.00,FEW,,0.04,951.0,WeatherDisplay:10.37,2013-07-19 18:57:00,
2013-07-19 14:02:00,81.4,63.7,29.74,North,5,3.0,3.0,55,0.00,FEW,,0.03,930.0,WeatherDisplay:10.37,2013-07-19 19:02:00,
2013-07-19 14:07:00,81.1,63.4,29.73,ESE,121,0.0,1.7,55,0.00,FEW,,0.04,951.0,WeatherDisplay:10.37,2013-07-19 19:07:00,
2013-07-19 14:12:00,81.1,63.4,29.73,ESE,121,0.0,1.7,55,0.00,FEW,,0.04,951.0,WeatherDisplay:10.37,2013-07-19 19:12:00,
2013-07-19 14:17:00,81.3,63.6,29.74,NNE,19,3.5,3.5,55,0.00,FEW,,0.03,926.0,WeatherDisplay:10.37,2013-07-19 19:17:00,
2013-07-19 14:22:00,81.1,63.4,29.73,ESE,121,0.0,1.7,55,0.00,SCT,,0.04,951.0,WeatherDisplay:10.37,2013-07-19 19:22:00,
2013-07-19 14:27:00,81.1,63.4,29.73,ESE,121,0.0,1.7,55,0.00,SCT,,0.04,951.0,WeatherDisplay:10.37,2013-07-19 19:27:00,
2013-07-19 14:32:00,81.1,63.4,29.73,ESE,121,0.0,1.7,55,0.00,SCT,,0.04,951.0,WeatherDisplay:10.37,2013-07-19 19:32:00,
2013-07-19 14:37:00,81.1,63.4,29.73,ESE,121,0.0,1.7,55,0.00,SCT,,0.04,951.0,WeatherDisplay:10.37,2013-07-19 19:37:00,
2013-07-19 14:42:00,81.6,63.3,29.74,SW,236,4.6,4.6,54,0.00,SCT,,0.03,891.0,WeatherDisplay:10.37,2013-07-19 19:42:00,
2013-07-19 14:47:00,82.0,64.8,29.74,ENE,65,3.0,3.0,56,0.00,SCT,,0.03,882.0,WeatherDisplay:10.37,2013-07-19 19:47:00,
2013-07-19 14:52:00,81.1,63.4,29.73,ESE,121,0.0,1.7,55,0.00,SCT,,0.04,951.0,WeatherDisplay:10.37,2013-07-19 19:52:00,
2013-07-19 14:57:00,82.1,63.3,29.74,NNE,13,3.5,3.5,53,0.00,SCT,,0.03,891.0,WeatherDisplay:10.37,2013-07-19 19:57:00,
2013-07-19 15:02:00,81.1,63.4,29.73,ESE,121,0.0,1.7,55,0.00,SCT,,0.04,951.0,WeatherDisplay:10.37,2013-07-19 20:02:00,
2013-07-19 15:07:00,81.1,63.4,29.73,ESE,121,0.0,1.7,55,0.00,SCT,,0.04,951.0,WeatherDisplay:10.37,2013-07-19 20:07:00,
2013-07-19 15:12:00,81.1,63.4,29.73,ESE,121,0.0,1.7,55,0.00,SCT,,0.04,951.0,WeatherDisplay:10.37,2013-07-19 20:12:00,
2013-07-19 15:17:00,82.0,62.1,29.74,NNE,13,6.9,6.9,51,0.00,SCT,,0.03,895.0,WeatherDisplay:10.37,2013-07-19 20:17:00,
2013-07-19 15:22:00,81.1,63.4,29.73,ESE,121,0.0,1.7,55,0.00,SCT,,0.04,951.0,WeatherDisplay:10.37,2013-07-19 20:22:00,
2013-07-19 15:27:00,81.1,63.4,29.73,ESE,121,0.0,1.7,55,0.00,SCT,,0.04,951.0,WeatherDisplay:10.37,2013-07-19 20:27:00,
2013-07-19 15:32:00,82.0,63.7,29.74,SSE,167,5.8,5.8,54,0.00,SCT,,0.03,817.0,WeatherDisplay:10.37,2013-07-19 20:32:00,
2013-07-19 15:37:00,82.3,61.2,29.74,East,95,2.3,2.3,49,0.00,SCT,,0.03,803.0,WeatherDisplay:10.37,2013-07-19 20:37:00,
2013-07-19 15:42:00,81.1,63.4,29.73,ESE,121,0.0,1.7,55,0.00,SCT,,0.04,951.0,WeatherDisplay:10.37,2013-07-19 20:42:00,
2013-07-19 15:47:00,82.6,62.6,29.74,NE,53,4.6,4.6,51,0.00,SCT,,0.03,807.0,WeatherDisplay:10.37,2013-07-19 20:47:00,
2013-07-19 15:52:00,82.7,62.2,29.74,West,273,4.6,4.6,50,0.00,SCT,,0.03,784.0,WeatherDisplay:10.37,2013-07-19 20:52:00,
2013-07-19 15:57:00,82.9,62.4,29.74,WNW,299,4.0,4.0,50,0.00,SCT,,0.03,798.0,WeatherDisplay:10.37,2013-07-19 20:57:00,
2013-07-19 16:02:00,81.1,63.4,29.73,ESE,121,0.0,1.7,55,0.00,SCT,,0.04,951.0,WeatherDisplay:10.37,2013-07-19 21:02:00,
2013-07-19 16:07:00,81.1,63.4,29.73,ESE,121,0.0,1.7,55,0.00,SCT,,0.04,951.0,WeatherDisplay:10.37,2013-07-19 21:07:00,
2013-07-19 16:12:00,81.1,63.4,29.73,ESE,121,0.0,1.7,55,0.00,SCT,,0.04,951.0,WeatherDisplay:10.37,2013-07-19 21:12:00,
2013-07-19 16:17:00,83.9,61.5,29.74,WSW,241,5.0,5.0,47,0.00,SCT,,0.03,754.0,WeatherDisplay:10.37,2013-07-19 21:17:00,
2013-07-19 16:22:00,83.7,61.9,29.74,WSW,248,3.5,3.5,48,0.00,SCT,,0.03,712.0,WeatherDisplay:10.37,2013-07-19 21:22:00,
2013-07-19 16:27:00,83.4,61.7,29.74,SE,135,2.3,2.3,48,0.00,SCT,,0.03,689.0,WeatherDisplay:10.37,2013-07-19 21:27:00,
2013-07-19 16:32:00,81.1,63.4,29.73,ESE,121,0.0,1.7,55,0.00,SCT,,0.04,951.0,WeatherDisplay:10.37,2013-07-19 21:32:00,
2013-07-19 16:37:00,81.1,63.4,29.73,ESE,121,0.0,1.7,55,0.00,SCT,,0.04,951.0,WeatherDisplay:10.37,2013-07-19 21:37:00,
2013-07-19 16:42:00,81.2,58.5,29.75,West,269,3.5,3.5,46,0.00,SCT,,0.03,107.0,WeatherDisplay:10.37,2013-07-19 21:42:00,
2013-07-19 16:47:00,80.9,59.4,29.75,SW,221,7.0,7.0,48,0.00,SCT,,0.03,622.0,WeatherDisplay:10.37,2013-07-19 21:47:00,
2013-07-19 16:52:00,80.7,59.2,29.75,NNE,26,1.1,1.1,48,0.00,SCT,,0.03,97.0,WeatherDisplay:10.37,2013-07-19 21:52:00,
2013-07-19 16:57:00,80.3,60.5,29.75,NNE,25,5.8,5.8,51,0.00,SCT,,0.03,142.0,WeatherDisplay:10.37,2013-07-19 21:57:00,
2013-07-19 17:02:00,79.7,61.1,29.75,NNW,344,3.5,3.5,53,0.00,SCT,,0.03,83.0,WeatherDisplay:10.37,2013-07-19 22:02:00,
2013-07-19 17:07:00,81.1,63.4,29.73,ESE,121,0.0,1.7,55,0.00,SCT,,0.04,951.0,WeatherDisplay:10.37,2013-07-19 22:07:00,
2013-07-19 17:12:00,78.7,61.7,29.75,West,281,2.3,0.0,56,0.00,SCT,,0.03,84.0,WeatherDisplay:10.37,2013-07-19 22:12:00,
2013-07-19 17:17:00,78.4,62.4,29.75,NNW,329,0.0,0.0,58,0.00,FEW,,0.03,181.0,WeatherDisplay:10.37,2013-07-19 22:17:00,
2013-07-19 17:22:00,81.1,63.4,29.73,ESE,121,0.0,1.7,55,0.00,FEW,,0.04,951.0,WeatherDisplay:10.37,2013-07-19 22:22:00,
2013-07-19 17:27:00,81.1,63.4,29.73,ESE,121,0.0,1.7,55,0.00,FEW,,0.04,951.0,WeatherDisplay:10.37,2013-07-19 22:27:00,
2013-07-19 17:32:00,79.2,62.7,29.75,East,98,5.8,5.8,57,0.00,FEW,,0.03,468.0,WeatherDisplay:10.37,2013-07-19 22:32:00,
2013-07-19 17:37:00,81.1,63.4,29.73,ESE,121,0.0,1.7,55,0.00,FEW,,0.04,951.0,WeatherDisplay:10.37,2013-07-19 22:37:00,
2013-07-19 17:42:00,79.7,58.8,29.75,SSW,209,4.6,4.6,49,0.00,FEW,,0.04,301.0,WeatherDisplay:10.37,2013-07-19 22:42:00,
2013-07-19 17:47:00,79.7,60.5,29.74,North,5,3.5,3.5,52,0.00,FEW,,0.04,120.0,WeatherDisplay:10.37,2013-07-19 22:47:00,
2013-07-19 17:52:00,79.6,61.5,29.75,NNW,344,2.3,2.3,54,0.00,FEW,,0.03,461.0,WeatherDisplay:10.37,2013-07-19 22:52:00,
2013-07-19 17:57:00,79.1,58.9,29.74,SSE,148,3.5,3.5,50,0.00,FEW,,0.03,63.0,WeatherDisplay:10.37,2013-07-19 22:57:00,
2013-07-19 18:02:00,78.8,58.6,29.74,WSW,248,2.3,2.3,50,0.00,FEW,,0.03,56.0,WeatherDisplay:10.37,2013-07-19 23:02:00,
2013-07-19 18:07:00,78.6,58.4,29.74,NW,321,3.5,3.5,50,0.00,FEW,,0.03,53.0,WeatherDisplay:10.37,2013-07-19 23:07:00,
2013-07-19 18:12:00,79.5,59.2,29.74,NNE,19,2.3,2.3,50,0.00,FEW,,0.04,100.0,WeatherDisplay:10.37,2013-07-19 23:12:00,
2013-07-19 18:17:00,79.5,59.2,29.74,NNE,19,2.3,2.3,50,0.00,SCT,,0.04,100.0,WeatherDisplay:10.37,2013-07-19 23:17:00,
2013-07-19 18:22:00,79.5,59.2,29.74,NNE,19,2.3,2.3,50,0.00,SCT,,0.04,100.0,WeatherDisplay:10.37,2013-07-19 23:22:00,
2013-07-19 18:27:00,77.8,60.3,29.75,WSW,255,1.1,0.0,55,0.00,SCT,,0.03,44.0,WeatherDisplay:10.37,2013-07-19 23:27:00,
2013-07-19 18:32:00,79.5,59.2,29.74,NNE,19,2.3,2.3,50,0.00,SCT,,0.04,100.0,WeatherDisplay:10.37,2013-07-19 23:32:00,
2013-07-19 18:37:00,79.5,59.2,29.74,NNE,19,2.3,2.3,50,0.00,SCT,,0.04,100.0,WeatherDisplay:10.37,2013-07-19 23:37:00,
2013-07-19 18:42:00,77.2,59.3,29.75,NE,51,3.5,3.5,54,0.00,SCT,,0.03,42.0,WeatherDisplay:10.37,2013-07-19 23:42:00,
2013-07-19 18:47:00,79.5,59.2,29.74,NNE,19,2.3,2.3,50,0.00,SCT,,0.04,100.0,WeatherDisplay:10.37,2013-07-19 23:47:00,
2013-07-19 18:52:00,76.8,59.4,29.75,West,275,3.5,3.5,55,0.00,SCT,,0.03,37.0,WeatherDisplay:10.37,2013-07-19 23:52:00,
2013-07-19 18:57:00,76.6,59.7,29.75,West,277,2.3,2.3,56,0.00,SCT,,0.03,35.0,WeatherDisplay:10.37,2013-07-19 23:57:00,
2013-07-19 19:02:00,76.4,60.0,29.75,West,278,1.1,0.0,57,0.00,CLR,,0.03,33.0,WeatherDisplay:10.37,2013-07-20 00:02:00,
2013-07-19 19:07:00,76.2,61.8,29.75,North,355,2.3,0.0,61,0.00,CLR,,0.03,40.0,WeatherDisplay:10.37,2013-07-20 00:07:00,
2013-07-19 19:12:00,79.5,59.2,29.74,NNE,19,2.3,2.3,50,0.00,CLR,,0.04,100.0,WeatherDisplay:10.37,2013-07-20 00:12:00,
2013-07-19 19:17:00,75.5,62.0,29.75,NNE,17,2.0,2.0,63,0.00,CLR,,0.03,28.0,WeatherDisplay:10.37,2013-07-20 00:17:00,
2013-07-19 19:23:00,75.1,60.3,29.75,SW,223,3.5,3.5,60,0.00,CLR,,0.03,28.0,WeatherDisplay:10.37,2013-07-20 00:23:00,
2013-07-19 19:28:00,79.5,59.2,29.74,NNE,19,2.3,2.3,50,0.00,CLR,,0.04,100.0,WeatherDisplay:10.37,2013-07-20 00:28:00,
2013-07-19 19:33:00,74.8,60.9,29.75,West,260,0.0,0.2,62,0.00,CLR,,0.03,26.0,WeatherDisplay:10.37,2013-07-20 00:33:00,
2013-07-19 19:38:00,74.8,60.9,29.75,West,260,0.0,0.2,62,0.00,CLR,,0.03,26.0,WeatherDisplay:10.37,2013-07-20 00:38:00,
2013-07-19 19:43:00,74.2,62.5,29.75,WSW,248,1.1,0.0,67,0.00,CLR,,0.04,23.0,WeatherDisplay:10.37,2013-07-20 00:43:00,
2013-07-19 19:48:00,73.8,63.0,29.75,WSW,248,0.0,0.0,69,0.00,CLR,,0.03,21.0,WeatherDisplay:10.37,2013-07-20 00:48:00,
2013-07-19 19:53:00,73.4,62.6,29.75,WSW,248,0.0,0.2,69,0.00,CLR,,0.03,19.0,WeatherDisplay:10.37,2013-07-20 00:53:00,
2013-07-19 19:58:00,74.2,62.5,29.75,WSW,248,0.0,0.0,67,0.00,CLR,,0.04,23.0,WeatherDisplay:10.37,2013-07-20 00:58:00,
2013-07-19 20:03:00,74.2,62.5,29.75,WSW,248,0.0,0.0,67,0.00,CLR,,0.04,23.0,WeatherDisplay:10.37,2013-07-20 01:03:00,
2013-07-19 20:08:00,72.4,62.1,29.75,WSW,248,0.0,0.0,70,0.00,CLR,,0.03,14.0,WeatherDisplay:10.37,2013-07-20 01:08:00,
2013-07-19 20:13:00,72.4,62.1,29.75,WSW,248,0.0,0.0,70,0.00,CLR,,0.03,14.0,WeatherDisplay:10.37,2013-07-20 01:13:00,
2013-07-19 20:18:00,71.8,62.7,29.75,WSW,248,0.0,0.0,73,0.00,CLR,,0.04,11.0,WeatherDisplay:10.37,2013-07-20 01:18:00,
2013-07-19 20:23:00,71.5,62.4,29.75,WSW,248,0.0,0.0,73,0.00,CLR,,0.04,9.0,WeatherDisplay:10.37,2013-07-20 01:23:00,
2013-07-19 20:28:00,71.0,61.9,29.75,WSW,248,0.0,0.0,73,0.00,CLR,,0.04,7.0,WeatherDisplay:10.37,2013-07-20 01:28:00,
2013-07-19 20:33:00,70.4,61.7,29.75,WSW,248,0.0,0.0,74,0.00,CLR,,0.03,5.0,WeatherDisplay:10.37,2013-07-20 01:33:00,
2013-07-19 20:38:00,70.5,61.8,29.75,WSW,248,0.0,0.0,74,0.00,CLR,,0.04,5.0,WeatherDisplay:10.37,2013-07-20 01:38:00,
2013-07-19 20:43:00,70.5,61.8,29.75,WSW,248,0.0,0.0,74,0.00,CLR,,0.04,5.0,WeatherDisplay:10.37,2013-07-20 01:43:00,
2013-07-19 20:48:00,68.9,61.8,29.75,WSW,248,0.0,0.0,78,0.00,CLR,,0.03,0.0,WeatherDisplay:10.37,2013-07-20 01:48:00,
2013-07-19 20:53:00,70.5,61.8,29.75,WSW,248,0.0,0.0,74,0.00,CLR,,0.04,5.0,WeatherDisplay:10.37,2013-07-20 01:53:00,
2013-07-19 20:58:00,67.8,61.8,29.75,WSW,248,0.0,0.0,81,0.00,CLR,,0.03,0.0,WeatherDisplay:10.37,2013-07-20 01:58:00,
2013-07-19 21:03:00,67.2,61.5,29.75,WSW,248,0.0,0.0,82,0.00,CLR,,0.04,0.0,WeatherDisplay:10.37,2013-07-20 02:03:00,
2013-07-19 21:08:00,66.7,61.4,29.76,WSW,248,0.0,0.0,83,0.00,CLR,,0.04,0.0,WeatherDisplay:10.37,2013-07-20 02:08:00,
2013-07-19 21:13:00,67.7,61.7,29.75,WSW,248,0.0,0.0,81,0.00,CLR,,0.03,0.0,WeatherDisplay:10.37,2013-07-20 02:13:00,
2013-07-19 21:18:00,66.3,61.0,29.76,WSW,248,0.0,0.0,83,0.00,CLR,,0.04,0.0,WeatherDisplay:10.37,2013-07-20 02:18:00,
2013-07-19 21:23:00,65.5,60.5,29.76,WSW,248,0.0,0.0,84,0.00,CLR,,0.03,0.0,WeatherDisplay:10.37,2013-07-20 02:23:00,
2013-07-19 21:28:00,65.4,60.8,29.76,WSW,248,0.0,0.0,85,0.00,CLR,,0.03,0.0,WeatherDisplay:10.37,2013-07-20 02:28:00,
2013-07-19 21:33:00,64.8,60.5,29.77,WSW,248,0.0,0.0,86,0.00,CLR,,0.04,0.0,WeatherDisplay:10.37,2013-07-20 02:33:00,
2013-07-19 21:38:00,64.4,60.4,29.77,WSW,248,0.0,0.0,87,0.00,CLR,,0.04,0.0,WeatherDisplay:10.37,2013-07-20 02:38:00,
2013-07-19 21:43:00,64.1,60.2,29.77,WSW,248,0.0,0.0,87,0.00,CLR,,0.03,0.0,WeatherDisplay:10.37,2013-07-20 02:43:00,
2013-07-19 21:48:00,63.8,59.9,29.78,WSW,248,0.0,0.0,87,0.00,CLR,,0.03,0.0,WeatherDisplay:10.37,2013-07-20 02:48:00,
2013-07-19 21:53:00,63.6,60.0,29.78,WSW,248,0.0,0.0,88,0.00,CLR,,0.04,0.0,WeatherDisplay:10.37,2013-07-20 02:53:00,
2013-07-19 21:58:00,63.4,59.8,29.78,WSW,248,0.0,0.0,88,0.00,CLR,,0.04,0.0,WeatherDisplay:10.37,2013-07-20 02:58:00,
2013-07-19 22:03:00,63.2,59.6,29.78,WSW,248,0.0,0.0,88,0.00,CLR,,0.04,0.0,WeatherDisplay:10.37,2013-07-20 03:03:00,
2013-07-19 22:08:00,63.4,59.8,29.78,WSW,248,0.0,0.0,88,0.00,CLR,,0.03,0.0,WeatherDisplay:10.37,2013-07-20 03:08:00,
2013-07-19 22:13:00,62.9,59.6,29.78,WSW,248,0.0,0.0,89,0.00,CLR,,0.04,0.0,WeatherDisplay:10.37,2013-07-20 03:13:00,
2013-07-19 22:18:00,62.6,59.3,29.78,WSW,248,0.0,0.0,89,0.00,CLR,,0.04,0.0,WeatherDisplay:10.37,2013-07-20 03:18:00,
2013-07-19 22:23:00,62.4,59.1,29.78,WSW,248,0.0,0.0,89,0.00,CLR,,0.04,0.0,WeatherDisplay:10.37,2013-07-20 03:23:00,
2013-07-19 22:28:00,62.2,58.9,29.78,WSW,248,0.0,0.0,89,0.00,CLR,,0.04,0.0,WeatherDisplay:10.37,2013-07-20 03:28:00,
2013-07-19 22:33:00,63.4,59.8,29.78,WSW,248,0.0,0.0,88,0.00,CLR,,0.03,0.0,WeatherDisplay:10.37,2013-07-20 03:33:00,
2013-07-19 22:38:00,63.4,59.8,29.78,WSW,248,0.0,0.0,88,0.00,CLR,,0.03,0.0,WeatherDisplay:10.37,2013-07-20 03:38:00,
2013-07-19 22:43:00,61.7,58.7,29.78,WSW,248,0.0,0.0,90,0.00,CLR,,0.04,0.0,WeatherDisplay:10.37,2013-07-20 03:43:00,
2013-07-19 22:48:00,61.6,58.6,29.78,WSW,248,0.0,0.0,90,0.00,CLR,,0.03,0.0,WeatherDisplay:10.37,2013-07-20 03:48:00,
2013-07-19 22:53:00,61.7,58.7,29.78,WSW,248,0.0,0.0,90,0.00,CLR,,0.04,0.0,WeatherDisplay:10.37,2013-07-20 03:53:00,
2013-07-19 22:58:00,61.3,58.3,29.78,WSW,248,0.0,0.0,90,0.00,CLR,,0.04,0.0,WeatherDisplay:10.37,2013-07-20 03:58:00,
2013-07-19 23:01:00,61.3,58.3,29.78,WSW,248,0.0,0.0,90,0.00,CLR,,0.04,0.0,WeatherDisplay:10.37,2013-07-20 04:01:00,
2013-07-19 23:07:00,61.5,58.5,29.78,WSW,248,0.0,0.0,90,0.00,CLR,,0.03,0.0,WeatherDisplay:10.37,2013-07-20 04:07:00,
2013-07-19 23:12:00,61.5,58.5,29.78,WSW,248,0.0,0.0,90,0.00,CLR,,0.03,0.0,WeatherDisplay:10.37,2013-07-20 04:12:00,
2013-07-19 23:17:00,61.5,58.5,29.78,WSW,248,0.0,0.0,90,0.00,CLR,,0.03,0.0,WeatherDisplay:10.37,2013-07-20 04:17:00,
2013-07-19 23:22:00,60.8,58.2,29.79,WSW,248,0.0,0.0,91,0.00,CLR,,0.03,0.0,WeatherDisplay:10.37,2013-07-20 04:22:00,
2013-07-19 23:27:00,60.8,58.5,29.79,WSW,248,0.0,0.0,92,0.00,CLR,,0.03,0.0,WeatherDisplay:10.37,2013-07-20 04:27:00,
2013-07-19 23:32:00,60.8,58.5,29.79,WSW,248,0.0,0.0,92,0.00,CLR,,0.03,0.0,WeatherDisplay:10.37,2013-07-20 04:32:00,
2013-07-19 23:37:00,60.8,58.5,29.79,WSW,248,0.0,0.0,92,0.00,CLR,,0.03,0.0,WeatherDisplay:10.37,2013-07-20 04:37:00,
2013-07-19 23:42:00,60.8,58.5,29.79,WSW,248,0.0,0.0,92,0.00,CLR,,0.03,0.0,WeatherDisplay:10.37,2013-07-20 04:42:00,
2013-07-19 23:47:00,60.8,58.5,29.79,WSW,248,0.0,0.0,92,0.00,CLR,,0.03,0.0,WeatherDisplay:10.37,2013-07-20 04:47:00,
2013-07-19 23:52:00,60.8,58.5,29.79,WSW,248,0.0,0.0,92,0.00,CLR,,0.03,0.0,WeatherDisplay:10.37,2013-07-20 04:52:00,
2013-07-19 23:57:00,60.7,58.4,29.80,WSW,248,0.0,0.0,92,0.00,CLR,,0.04,0.0,WeatherDisplay:10.37,2013-07-20 04:57:00,